sensor_id;sensor_type;location;lat;lon;timestamp;pressure;altitude;pressure_sealevel;temperature;humidity
53522;BME280;39398;48.382;9.802;2023-04-21T00:03:48;93420.25;;;5.78;100.00
53522;BME280;39398;48.382;9.802;2023-04-21T00:08:50;93413.88;;;5.49;100.00
53522;BME280;39398;48.382;9.802;2023-04-21T00:13:51;93399.19;;;5.17;100.00
53522;BME280;39398;48.382;9.802;2023-04-21T00:18:54;93389.16;;;4.89;100.00
53522;BME280;39398;48.382;9.802;2023-04-21T00:23:56;93391.13;;;4.32;100.00
53522;BME280;39398;48.382;9.802;2023-04-21T00:28:57;93386.69;;;4.88;100.00
53522;BME280;39398;48.382;9.802;2023-04-21T00:34:00;93392.72;;;4.97;100.00
53522;BME280;39398;48.382;9.802;2023-04-21T00:39:02;93404.31;;;5.33;100.00
53522;BME280;39398;48.382;9.802;2023-04-21T00:44:05;93403.72;;;5.23;100.00
53522;BME280;39398;48.382;9.802;2023-04-21T00:49:08;93392.59;;;5.21;100.00
53522;BME280;39398;48.382;9.802;2023-04-21T00:54:10;93386.69;;;5.27;100.00
53522;BME280;39398;48.382;9.802;2023-04-21T00:59:12;93380.56;;;5.04;100.00
53522;BME280;39398;48.382;9.802;2023-04-21T01:04:15;93373.72;;;5.34;100.00
53522;BME280;39398;48.382;9.802;2023-04-21T01:09:17;93369.44;;;4.79;100.00
53522;BME280;39398;48.382;9.802;2023-04-21T01:14:19;93372.44;;;4.99;100.00
53522;BME280;39398;48.382;9.802;2023-04-21T01:19:22;93362.22;;;5.12;100.00
53522;BME280;39398;48.382;9.802;2023-04-21T01:24:34;93350.09;;;5.19;100.00
53522;BME280;39398;48.382;9.802;2023-04-21T01:29:36;93349.78;;;4.83;100.00
53522;BME280;39398;48.382;9.802;2023-04-21T01:34:39;93341.16;;;4.35;100.00
53522;BME280;39398;48.382;9.802;2023-04-21T01:39:44;93333.72;;;4.94;100.00
53522;BME280;39398;48.382;9.802;2023-04-21T01:44:47;93323.59;;;4.04;100.00
53522;BME280;39398;48.382;9.802;2023-04-21T01:49:48;93318.56;;;3.86;100.00
53522;BME280;39398;48.382;9.802;2023-04-21T01:54:52;93326.53;;;4.09;100.00
53522;BME280;39398;48.382;9.802;2023-04-21T01:59:53;93338.44;;;4.59;100.00
53522;BME280;39398;48.382;9.802;2023-04-21T02:04:55;93330.97;;;4.87;100.00
53522;BME280;39398;48.382;9.802;2023-04-21T02:09:58;93328.69;;;4.53;100.00
53522;BME280;39398;48.382;9.802;2023-04-21T02:14:59;93330.78;;;4.50;100.00
53522;BME280;39398;48.382;9.802;2023-04-21T02:20:01;93335.09;;;4.82;100.00
53522;BME280;39398;48.382;9.802;2023-04-21T02:25:06;93334.94;;;5.06;100.00
53522;BME280;39398;48.382;9.802;2023-04-21T02:30:08;93327.50;;;4.95;100.00
53522;BME280;39398;48.382;9.802;2023-04-21T02:35:10;93327.84;;;4.92;100.00
53522;BME280;39398;48.382;9.802;2023-04-21T02:40:13;93332.63;;;4.88;100.00
53522;BME280;39398;48.382;9.802;2023-04-21T02:45:15;93341.22;;;4.97;100.00
53522;BME280;39398;48.382;9.802;2023-04-21T02:50:16;93326.75;;;4.78;100.00
53522;BME280;39398;48.382;9.802;2023-04-21T02:55:19;93326.75;;;4.78;100.00
53522;BME280;39398;48.382;9.802;2023-04-21T03:00:21;93326.03;;;4.93;100.00
53522;BME280;39398;48.382;9.802;2023-04-21T03:05:22;93315.00;;;4.74;100.00
53522;BME280;39398;48.382;9.802;2023-04-21T03:10:25;93327.66;;;3.99;100.00
53522;BME280;39398;48.382;9.802;2023-04-21T03:15:27;93327.84;;;3.97;100.00
53522;BME280;39398;48.382;9.802;2023-04-21T03:20:29;93325.94;;;4.38;100.00
53522;BME280;39398;48.382;9.802;2023-04-21T03:25:32;93312.00;;;4.07;100.00
53522;BME280;39398;48.382;9.802;2023-04-21T03:30:33;93333.97;;;4.29;100.00
53522;BME280;39398;48.382;9.802;2023-04-21T03:35:35;93328.16;;;4.10;100.00
53522;BME280;39398;48.382;9.802;2023-04-21T03:40:38;93338.34;;;4.36;100.00
53522;BME280;39398;48.382;9.802;2023-04-21T03:45:39;93327.75;;;4.38;100.00
53522;BME280;39398;48.382;9.802;2023-04-21T03:50:41;93327.31;;;4.18;100.00
53522;BME280;39398;48.382;9.802;2023-04-21T03:55:44;93310.13;;;3.52;100.00
53522;BME280;39398;48.382;9.802;2023-04-21T04:00:45;93316.66;;;2.64;100.00
53522;BME280;39398;48.382;9.802;2023-04-21T04:05:47;93331.28;;;3.08;100.00
53522;BME280;39398;48.382;9.802;2023-04-21T04:10:50;93348.47;;;3.51;100.00
53522;BME280;39398;48.382;9.802;2023-04-21T04:15:52;93373.22;;;3.80;100.00
53522;BME280;39398;48.382;9.802;2023-04-21T04:20:53;93358.22;;;3.65;100.00
53522;BME280;39398;48.382;9.802;2023-04-21T04:25:56;93346.31;;;3.87;100.00
53522;BME280;39398;48.382;9.802;2023-04-21T04:30:58;93354.00;;;3.64;100.00
53522;BME280;39398;48.382;9.802;2023-04-21T04:35:59;93356.06;;;3.12;100.00
53522;BME280;39398;48.382;9.802;2023-04-21T04:41:03;93360.06;;;2.82;100.00
53522;BME280;39398;48.382;9.802;2023-04-21T04:46:04;93368.53;;;2.84;100.00
53522;BME280;39398;48.382;9.802;2023-04-21T04:51:06;93382.53;;;2.74;100.00
53522;BME280;39398;48.382;9.802;2023-04-21T04:56:09;93402.75;;;3.39;100.00
53522;BME280;39398;48.382;9.802;2023-04-21T05:01:11;93388.25;;;4.02;100.00
53522;BME280;39398;48.382;9.802;2023-04-21T05:06:13;93387.09;;;4.13;100.00
53522;BME280;39398;48.382;9.802;2023-04-21T05:11:31;93394.09;;;4.29;100.00
53522;BME280;39398;48.382;9.802;2023-04-21T05:16:33;93400.69;;;4.64;100.00
53522;BME280;39398;48.382;9.802;2023-04-21T05:21:34;93400.56;;;4.49;100.00
53522;BME280;39398;48.382;9.802;2023-04-21T05:26:37;93406.88;;;4.71;100.00
53522;BME280;39398;48.382;9.802;2023-04-21T05:31:39;93408.00;;;4.69;100.00
53522;BME280;39398;48.382;9.802;2023-04-21T05:36:41;93399.03;;;4.71;100.00
53522;BME280;39398;48.382;9.802;2023-04-21T05:41:44;93398.03;;;4.80;100.00
53522;BME280;39398;48.382;9.802;2023-04-21T05:46:45;93394.59;;;4.72;100.00
53522;BME280;39398;48.382;9.802;2023-04-21T05:51:47;93391.56;;;4.52;100.00
53522;BME280;39398;48.382;9.802;2023-04-21T05:56:50;93385.69;;;4.58;100.00
53522;BME280;39398;48.382;9.802;2023-04-21T06:01:52;93379.72;;;4.72;100.00
53522;BME280;39398;48.382;9.802;2023-04-21T06:06:53;93375.56;;;4.47;100.00
53522;BME280;39398;48.382;9.802;2023-04-21T06:11:56;93375.13;;;4.27;100.00
53522;BME280;39398;48.382;9.802;2023-04-21T06:16:58;93367.66;;;4.07;100.00
53522;BME280;39398;48.382;9.802;2023-04-21T06:21:59;93361.63;;;3.99;100.00
53522;BME280;39398;48.382;9.802;2023-04-21T06:27:03;93368.44;;;4.40;100.00
53522;BME280;39398;48.382;9.802;2023-04-21T06:32:04;93378.06;;;4.24;100.00
53522;BME280;39398;48.382;9.802;2023-04-21T06:37:06;93376.38;;;4.55;100.00
53522;BME280;39398;48.382;9.802;2023-04-21T06:42:09;93373.06;;;5.01;100.00
53522;BME280;39398;48.382;9.802;2023-04-21T06:47:11;93363.09;;;5.04;100.00
53522;BME280;39398;48.382;9.802;2023-04-21T06:52:13;93362.97;;;4.58;100.00
53522;BME280;39398;48.382;9.802;2023-04-21T06:57:20;93367.50;;;4.64;100.00
53522;BME280;39398;48.382;9.802;2023-04-21T07:02:22;93362.13;;;4.66;100.00
53522;BME280;39398;48.382;9.802;2023-04-21T07:07:26;93365.28;;;4.93;100.00
53522;BME280;39398;48.382;9.802;2023-04-21T07:12:29;93357.34;;;5.09;100.00
53522;BME280;39398;48.382;9.802;2023-04-21T07:17:31;93350.25;;;5.87;100.00
53522;BME280;39398;48.382;9.802;2023-04-21T07:22:33;93340.78;;;6.23;100.00
53522;BME280;39398;48.382;9.802;2023-04-21T07:27:36;93341.00;;;6.51;100.00
53522;BME280;39398;48.382;9.802;2023-04-21T07:32:37;93347.94;;;7.25;100.00
53522;BME280;39398;48.382;9.802;2023-04-21T07:37:39;93338.59;;;7.59;100.00
53522;BME280;39398;48.382;9.802;2023-04-21T07:42:44;93352.69;;;7.36;100.00
53522;BME280;39398;48.382;9.802;2023-04-21T07:48:00;93355.34;;;7.58;100.00
53522;BME280;39398;48.382;9.802;2023-04-21T07:53:02;93362.75;;;7.33;100.00
53522;BME280;39398;48.382;9.802;2023-04-21T07:58:08;93363.63;;;7.18;100.00
53522;BME280;39398;48.382;9.802;2023-04-21T08:03:09;93346.47;;;8.30;100.00
53522;BME280;39398;48.382;9.802;2023-04-21T08:08:14;93343.47;;;9.02;100.00
53522;BME280;39398;48.382;9.802;2023-04-21T08:13:17;93348.13;;;9.00;100.00
53522;BME280;39398;48.382;9.802;2023-04-21T08:18:21;93344.38;;;9.23;100.00
53522;BME280;39398;48.382;9.802;2023-04-21T08:23:31;93337.94;;;9.39;100.00
53522;BME280;39398;48.382;9.802;2023-04-21T08:28:34;93332.81;;;9.24;100.00
53522;BME280;39398;48.382;9.802;2023-04-21T08:33:37;93328.84;;;8.24;100.00
53522;BME280;39398;48.382;9.802;2023-04-21T08:44:55;93335.75;;;10.75;100.00
53522;BME280;39398;48.382;9.802;2023-04-21T08:49:58;93340.91;;;10.50;100.00
53522;BME280;39398;48.382;9.802;2023-04-21T08:55:00;93344.97;;;10.39;100.00
53522;BME280;39398;48.382;9.802;2023-04-21T09:00:07;93340.25;;;10.68;100.00
53522;BME280;39398;48.382;9.802;2023-04-21T09:05:09;93334.69;;;10.96;100.00
53522;BME280;39398;48.382;9.802;2023-04-21T09:10:11;93340.28;;;11.33;100.00
53522;BME280;39398;48.382;9.802;2023-04-21T09:15:15;93338.06;;;11.16;100.00
53522;BME280;39398;48.382;9.802;2023-04-21T09:20:20;93347.16;;;10.16;100.00
53522;BME280;39398;48.382;9.802;2023-04-21T09:25:22;93336.38;;;9.64;100.00
53522;BME280;39398;48.382;9.802;2023-04-21T09:30:25;93344.69;;;9.68;100.00
53522;BME280;39398;48.382;9.802;2023-04-21T09:35:27;93349.16;;;9.74;100.00
53522;BME280;39398;48.382;9.802;2023-04-21T09:40:30;93355.81;;;9.57;100.00
53522;BME280;39398;48.382;9.802;2023-04-21T09:45:36;93353.66;;;10.00;100.00
53522;BME280;39398;48.382;9.802;2023-04-21T09:50:41;93353.81;;;9.72;100.00
53522;BME280;39398;48.382;9.802;2023-04-21T09:56:05;93355.94;;;9.28;100.00
53522;BME280;39398;48.382;9.802;2023-04-21T10:01:31;93351.19;;;9.85;100.00
53522;BME280;39398;48.382;9.802;2023-04-21T10:06:33;93347.38;;;10.54;100.00
53522;BME280;39398;48.382;9.802;2023-04-21T10:11:35;93339.66;;;10.19;100.00
53522;BME280;39398;48.382;9.802;2023-04-21T10:16:38;93346.56;;;10.07;100.00
53522;BME280;39398;48.382;9.802;2023-04-21T10:21:41;93340.28;;;10.48;100.00
53522;BME280;39398;48.382;9.802;2023-04-21T10:26:43;93350.59;;;10.83;100.00
53522;BME280;39398;48.382;9.802;2023-04-21T10:31:54;93345.34;;;10.03;100.00
53522;BME280;39398;48.382;9.802;2023-04-21T10:37:12;93336.03;;;10.54;100.00
53522;BME280;39398;48.382;9.802;2023-04-21T10:42:21;93332.94;;;10.70;100.00
53522;BME280;39398;48.382;9.802;2023-04-21T10:47:25;93331.97;;;11.16;100.00
53522;BME280;39398;48.382;9.802;2023-04-21T10:52:31;93328.78;;;11.07;100.00
53522;BME280;39398;48.382;9.802;2023-04-21T10:57:34;93337.53;;;11.53;100.00
53522;BME280;39398;48.382;9.802;2023-04-21T11:02:38;93335.09;;;11.90;100.00
53522;BME280;39398;48.382;9.802;2023-04-21T11:07:44;93327.97;;;11.83;100.00
53522;BME280;39398;48.382;9.802;2023-04-21T11:12:46;93323.03;;;12.00;100.00
53522;BME280;39398;48.382;9.802;2023-04-21T11:17:49;93326.88;;;11.28;100.00
53522;BME280;39398;48.382;9.802;2023-04-21T11:22:51;93322.00;;;12.51;100.00
53522;BME280;39398;48.382;9.802;2023-04-21T11:28:00;93311.69;;;12.18;100.00
53522;BME280;39398;48.382;9.802;2023-04-21T11:33:03;93318.56;;;12.69;100.00
53522;BME280;39398;48.382;9.802;2023-04-21T11:38:05;93303.34;;;12.65;100.00
53522;BME280;39398;48.382;9.802;2023-04-21T11:43:09;93297.69;;;12.36;100.00
53522;BME280;39398;48.382;9.802;2023-04-21T11:48:15;93309.16;;;12.92;100.00
53522;BME280;39398;48.382;9.802;2023-04-21T11:59:22;93309.38;;;12.72;100.00
53522;BME280;39398;48.382;9.802;2023-04-21T12:04:28;93314.16;;;13.18;100.00
53522;BME280;39398;48.382;9.802;2023-04-21T12:09:35;93306.50;;;13.10;100.00
53522;BME280;39398;48.382;9.802;2023-04-21T12:14:39;93296.06;;;12.97;100.00
53522;BME280;39398;48.382;9.802;2023-04-21T12:19:49;93300.75;;;13.13;100.00
53522;BME280;39398;48.382;9.802;2023-04-21T12:24:51;93292.28;;;13.23;100.00
53522;BME280;39398;48.382;9.802;2023-04-21T12:29:53;93300.41;;;13.10;100.00
53522;BME280;39398;48.382;9.802;2023-04-21T12:34:58;93296.19;;;13.20;100.00
53522;BME280;39398;48.382;9.802;2023-04-21T12:40:00;93299.47;;;13.53;100.00
53522;BME280;39398;48.382;9.802;2023-04-21T12:45:20;93288.78;;;13.89;100.00
53522;BME280;39398;48.382;9.802;2023-04-21T12:50:25;93289.91;;;13.93;100.00
53522;BME280;39398;48.382;9.802;2023-04-21T12:55:29;93283.28;;;14.26;100.00
53522;BME280;39398;48.382;9.802;2023-04-21T13:00:30;93283.19;;;14.21;100.00
53522;BME280;39398;48.382;9.802;2023-04-21T13:05:34;93278.09;;;14.31;100.00
53522;BME280;39398;48.382;9.802;2023-04-21T13:10:46;93278.44;;;14.35;100.00
53522;BME280;39398;48.382;9.802;2023-04-21T13:15:50;93273.88;;;14.54;100.00
53522;BME280;39398;48.382;9.802;2023-04-21T13:20:53;93276.75;;;14.64;100.00
53522;BME280;39398;48.382;9.802;2023-04-21T13:25:55;93273.84;;;14.30;100.00
53522;BME280;39398;48.382;9.802;2023-04-21T13:30:57;93270.03;;;14.97;100.00
53522;BME280;39398;48.382;9.802;2023-04-21T13:36:00;93276.22;;;15.14;100.00
53522;BME280;39398;48.382;9.802;2023-04-21T13:41:02;93263.88;;;14.96;100.00
53522;BME280;39398;48.382;9.802;2023-04-21T13:46:04;93264.31;;;15.17;100.00
53522;BME280;39398;48.382;9.802;2023-04-21T13:51:07;93261.72;;;15.33;100.00
53522;BME280;39398;48.382;9.802;2023-04-21T13:56:09;93264.81;;;15.42;100.00
53522;BME280;39398;48.382;9.802;2023-04-21T14:01:12;93256.97;;;15.35;92.15
53522;BME280;39398;48.382;9.802;2023-04-21T14:06:23;93255.56;;;15.45;86.25
53522;BME280;39398;48.382;9.802;2023-04-21T14:11:29;93255.31;;;15.46;97.98
53522;BME280;39398;48.382;9.802;2023-04-21T14:16:31;93254.34;;;15.24;88.02
53522;BME280;39398;48.382;9.802;2023-04-21T14:21:34;93247.03;;;15.59;92.93
53522;BME280;39398;48.382;9.802;2023-04-21T14:26:36;93244.19;;;15.78;91.56
53522;BME280;39398;48.382;9.802;2023-04-21T14:31:37;93252.28;;;15.54;91.15
53522;BME280;39398;48.382;9.802;2023-04-21T14:36:41;93246.56;;;14.94;97.06
53522;BME280;39398;48.382;9.802;2023-04-21T14:41:43;93249.75;;;15.48;96.54
53522;BME280;39398;48.382;9.802;2023-04-21T14:46:47;93244.78;;;15.97;91.99
53522;BME280;39398;48.382;9.802;2023-04-21T14:52:10;93231.16;;;15.93;89.00
53522;BME280;39398;48.382;9.802;2023-04-21T14:57:12;93227.13;;;16.08;88.51
53522;BME280;39398;48.382;9.802;2023-04-21T15:02:36;93228.00;;;16.13;86.65
53522;BME280;39398;48.382;9.802;2023-04-21T15:07:41;93219.78;;;15.81;86.81
53522;BME280;39398;48.382;9.802;2023-04-21T15:12:45;93218.25;;;16.02;86.34
53522;BME280;39398;48.382;9.802;2023-04-21T15:17:49;93220.84;;;16.31;85.33
53522;BME280;39398;48.382;9.802;2023-04-21T15:22:52;93228.25;;;15.66;89.62
53522;BME280;39398;48.382;9.802;2023-04-21T15:27:54;93212.28;;;15.66;90.69
53522;BME280;39398;48.382;9.802;2023-04-21T15:32:55;93220.50;;;15.48;90.87
53522;BME280;39398;48.382;9.802;2023-04-21T15:37:58;93223.78;;;15.38;98.07
53522;BME280;39398;48.382;9.802;2023-04-21T15:43:04;93217.63;;;15.38;99.53
53522;BME280;39398;48.382;9.802;2023-04-21T15:48:05;93222.53;;;15.29;97.83
53522;BME280;39398;48.382;9.802;2023-04-21T15:53:08;93213.47;;;15.42;95.59
53522;BME280;39398;48.382;9.802;2023-04-21T15:58:10;93208.22;;;15.47;99.72
53522;BME280;39398;48.382;9.802;2023-04-21T16:03:19;93199.41;;;15.29;96.74
53522;BME280;39398;48.382;9.802;2023-04-21T16:08:25;93196.91;;;15.23;97.21
53522;BME280;39398;48.382;9.802;2023-04-21T16:13:27;93212.03;;;15.51;98.49
53522;BME280;39398;48.382;9.802;2023-04-21T16:18:29;93196.31;;;15.49;100.00
53522;BME280;39398;48.382;9.802;2023-04-21T16:23:34;93199.53;;;15.80;98.17
53522;BME280;39398;48.382;9.802;2023-04-21T16:28:45;93205.72;;;15.86;95.40
53522;BME280;39398;48.382;9.802;2023-04-21T16:33:47;93205.25;;;15.89;96.92
53522;BME280;39398;48.382;9.802;2023-04-21T16:38:50;93205.50;;;15.87;98.37
53522;BME280;39398;48.382;9.802;2023-04-21T16:43:52;93208.38;;;15.69;93.66
53522;BME280;39398;48.382;9.802;2023-04-21T16:48:56;93208.06;;;15.82;95.98
53522;BME280;39398;48.382;9.802;2023-04-21T16:53:59;93203.50;;;15.66;93.96
53522;BME280;39398;48.382;9.802;2023-04-21T16:59:01;93200.03;;;15.65;91.87
53522;BME280;39398;48.382;9.802;2023-04-21T17:04:03;93205.50;;;15.58;97.33
53522;BME280;39398;48.382;9.802;2023-04-21T17:09:06;93212.25;;;15.49;100.00
53522;BME280;39398;48.382;9.802;2023-04-21T17:14:08;93211.16;;;15.05;100.00
53522;BME280;39398;48.382;9.802;2023-04-21T17:19:09;93191.66;;;14.59;100.00
53522;BME280;39398;48.382;9.802;2023-04-21T17:24:12;93195.31;;;14.81;100.00
53522;BME280;39398;48.382;9.802;2023-04-21T17:29:14;93190.66;;;14.77;100.00
53522;BME280;39398;48.382;9.802;2023-04-21T17:34:16;93177.00;;;14.33;100.00
53522;BME280;39398;48.382;9.802;2023-04-21T17:39:19;93199.81;;;14.81;100.00
53522;BME280;39398;48.382;9.802;2023-04-21T17:44:20;93202.34;;;15.16;100.00
53522;BME280;39398;48.382;9.802;2023-04-21T17:49:22;93206.13;;;14.92;100.00
53522;BME280;39398;48.382;9.802;2023-04-21T17:54:32;93214.28;;;15.14;100.00
53522;BME280;39398;48.382;9.802;2023-04-21T17:59:34;93232.34;;;15.00;100.00
53522;BME280;39398;48.382;9.802;2023-04-21T18:04:38;93217.63;;;15.09;99.15
53522;BME280;39398;48.382;9.802;2023-04-21T18:09:47;93217.75;;;15.02;98.87
53522;BME280;39398;48.382;9.802;2023-04-21T18:14:49;93210.78;;;14.02;100.00
53522;BME280;39398;48.382;9.802;2023-04-21T18:19:51;93210.16;;;13.65;100.00
53522;BME280;39398;48.382;9.802;2023-04-21T18:24:59;93218.72;;;13.37;100.00
53522;BME280;39398;48.382;9.802;2023-04-21T18:30:01;93219.16;;;13.03;100.00
53522;BME280;39398;48.382;9.802;2023-04-21T18:35:03;93222.31;;;13.24;100.00
53522;BME280;39398;48.382;9.802;2023-04-21T18:40:09;93228.63;;;13.30;100.00
53522;BME280;39398;48.382;9.802;2023-04-21T18:45:10;93242.28;;;13.45;100.00
53522;BME280;39398;48.382;9.802;2023-04-21T18:50:12;93252.94;;;13.68;100.00
53522;BME280;39398;48.382;9.802;2023-04-21T18:55:16;93259.66;;;13.71;100.00
53522;BME280;39398;48.382;9.802;2023-04-21T19:00:18;93262.94;;;13.55;100.00
53522;BME280;39398;48.382;9.802;2023-04-21T19:05:26;93267.84;;;13.81;100.00
53522;BME280;39398;48.382;9.802;2023-04-21T19:10:32;93262.94;;;13.55;100.00
53522;BME280;39398;48.382;9.802;2023-04-21T19:15:34;93262.56;;;13.21;100.00
53522;BME280;39398;48.382;9.802;2023-04-21T19:20:36;93262.88;;;12.94;100.00
53522;BME280;39398;48.382;9.802;2023-04-21T19:25:39;93264.50;;;12.77;100.00
53522;BME280;39398;48.382;9.802;2023-04-21T19:30:42;93263.81;;;12.82;100.00
53522;BME280;39398;48.382;9.802;2023-04-21T19:35:51;93257.41;;;12.52;100.00
53522;BME280;39398;48.382;9.802;2023-04-21T19:40:55;93247.19;;;12.56;100.00
53522;BME280;39398;48.382;9.802;2023-04-21T19:45:57;93258.88;;;13.03;100.00
53522;BME280;39398;48.382;9.802;2023-04-21T19:50:59;93250.31;;;12.90;100.00
53522;BME280;39398;48.382;9.802;2023-04-21T19:56:02;93249.41;;;12.96;100.00
53522;BME280;39398;48.382;9.802;2023-04-21T20:01:05;93255.44;;;13.03;100.00
53522;BME280;39398;48.382;9.802;2023-04-21T20:06:07;93245.50;;;12.98;100.00
53522;BME280;39398;48.382;9.802;2023-04-21T20:11:12;93248.28;;;12.85;100.00
53522;BME280;39398;48.382;9.802;2023-04-21T20:16:13;93253.22;;;12.82;100.00
53522;BME280;39398;48.382;9.802;2023-04-21T20:21:17;93260.06;;;13.26;100.00
53522;BME280;39398;48.382;9.802;2023-04-21T20:26:21;93261.47;;;13.29;100.00
53522;BME280;39398;48.382;9.802;2023-04-21T20:31:23;93266.41;;;13.25;100.00
53522;BME280;39398;48.382;9.802;2023-04-21T20:36:24;93264.38;;;13.39;100.00
53522;BME280;39398;48.382;9.802;2023-04-21T20:41:32;93266.09;;;13.33;100.00
53522;BME280;39398;48.382;9.802;2023-04-21T20:46:34;93267.44;;;12.87;100.00
53522;BME280;39398;48.382;9.802;2023-04-21T20:51:39;93270.88;;;12.69;100.00
53522;BME280;39398;48.382;9.802;2023-04-21T20:56:42;93273.09;;;12.54;100.00
53522;BME280;39398;48.382;9.802;2023-04-21T21:01:44;93282.50;;;12.50;100.00
53522;BME280;39398;48.382;9.802;2023-04-21T21:06:49;93275.28;;;12.57;100.00
53522;BME280;39398;48.382;9.802;2023-04-21T21:11:54;93276.28;;;12.19;100.00
53522;BME280;39398;48.382;9.802;2023-04-21T21:16:56;93272.34;;;12.22;100.00
53522;BME280;39398;48.382;9.802;2023-04-21T21:21:57;93275.41;;;12.44;100.00
53522;BME280;39398;48.382;9.802;2023-04-21T21:27:00;93274.34;;;12.70;100.00
53522;BME280;39398;48.382;9.802;2023-04-21T21:32:02;93281.47;;;12.51;100.00
53522;BME280;39398;48.382;9.802;2023-04-21T21:37:11;93271.31;;;12.48;100.00
53522;BME280;39398;48.382;9.802;2023-04-21T21:42:14;93272.25;;;12.35;100.00
53522;BME280;39398;48.382;9.802;2023-04-21T21:47:19;93271.19;;;12.61;100.00
53522;BME280;39398;48.382;9.802;2023-04-21T21:52:20;93273.53;;;12.69;100.00
53522;BME280;39398;48.382;9.802;2023-04-21T21:57:23;93275.16;;;12.52;100.00
53522;BME280;39398;48.382;9.802;2023-04-21T22:02:25;93270.50;;;12.66;99.20
53522;BME280;39398;48.382;9.802;2023-04-21T22:07:27;93271.03;;;12.74;98.51
53522;BME280;39398;48.382;9.802;2023-04-21T22:12:31;93263.69;;;12.76;95.22
53522;BME280;39398;48.382;9.802;2023-04-21T22:17:33;93273.09;;;12.72;95.62
53522;BME280;39398;48.382;9.802;2023-04-21T22:22:36;93265.00;;;12.49;89.70
53522;BME280;39398;48.382;9.802;2023-04-21T22:27:40;93264.88;;;12.80;90.90
53522;BME280;39398;48.382;9.802;2023-04-21T22:32:42;93266.63;;;12.87;91.72
53522;BME280;39398;48.382;9.802;2023-04-21T22:37:44;93263.25;;;12.79;90.76
53522;BME280;39398;48.382;9.802;2023-04-21T22:42:47;93267.44;;;12.87;90.67
53522;BME280;39398;48.382;9.802;2023-04-21T22:47:49;93273.84;;;12.79;91.53
53522;BME280;39398;48.382;9.802;2023-04-21T22:52:50;93267.66;;;12.67;92.60
53522;BME280;39398;48.382;9.802;2023-04-21T22:57:56;93268.50;;;12.43;94.45
53522;BME280;39398;48.382;9.802;2023-04-21T23:02:58;93260.31;;;12.51;94.31
53522;BME280;39398;48.382;9.802;2023-04-21T23:08:00;93259.53;;;12.44;90.73
53522;BME280;39398;48.382;9.802;2023-04-21T23:13:03;93262.84;;;12.39;88.90
53522;BME280;39398;48.382;9.802;2023-04-21T23:18:05;93254.88;;;12.64;90.04
53522;BME280;39398;48.382;9.802;2023-04-21T23:23:06;93260.06;;;12.52;88.29
53522;BME280;39398;48.382;9.802;2023-04-21T23:28:11;93259.91;;;12.47;87.32
53522;BME280;39398;48.382;9.802;2023-04-21T23:33:13;93249.38;;;12.41;88.09
53522;BME280;39398;48.382;9.802;2023-04-21T23:38:18;93246.75;;;12.41;88.19
53522;BME280;39398;48.382;9.802;2023-04-21T23:43:21;93250.63;;;12.20;89.90
53522;BME280;39398;48.382;9.802;2023-04-21T23:48:23;93246.22;;;12.32;91.33
53522;BME280;39398;48.382;9.802;2023-04-21T23:53:24;93245.88;;;12.28;93.27
53522;BME280;39398;48.382;9.802;2023-04-21T23:58:35;93250.25;;;12.16;94.06
